Date,TemperatureHighF,TemperatureAvgF,TemperatureLowF,DewpointHighF,DewpointAvgF,DewpointLowF,HumidityHigh,HumidityAvg,HumidityLow,PressureMaxIn,PressureMinIn,WindSpeedMaxMPH,WindSpeedAvgMPH,GustSpeedMaxMPH,PrecipitationSumIn
2013-4-1,36.0,29.3,16.0,36.0,23.3,7.0,100,82,48,29.62,29.37,36,7,41,0.09
2013-4-2,24.0,19.6,16.0,18.0,10.8,8.0,93,72,61,29.79,29.58,27,8,37,0.00
2013-4-3,30.0,22.6,16.0,15.0,10.4,4.0,84,64,38,30.08,29.72,27,7,31,0.00
2013-4-4,46.0,29.4,14.0,18.0,14.9,10.0,93,62,29,30.08,29.65,21,3,23,0.00
2013-4-5,38.0,29.0,22.0,26.0,18.1,7.0,88,67,48,30.01,29.63,21,5,23,0.00
2013-4-6,37.0,25.8,16.0,12.0,6.5,1.0,78,48,25,30.08,29.81,18,5,18,0.00
2013-4-7,52.0,40.7,28.0,39.0,24.7,10.0,77,55,37,30.03,29.64,29,5,29,0.01
2013-4-8,55.0,41.3,34.0,35.0,29.8,25.0,88,69,36,29.96,29.63,17,3,23,0.07
2013-4-9,44.0,39.2,36.0,44.0,37.0,33.0,100,92,81,29.88,29.63,17,3,18,0.18
2013-4-10,45.0,39.0,35.0,44.0,38.5,30.0,100,98,92,29.83,29.71,11,2,11,0.28
2013-4-11,36.0,31.7,29.0,36.0,26.7,18.0,100,85,66,29.95,29.74,13,3,14,0.00
2013-4-12,31.0,29.2,27.0,31.0,27.8,18.0,100,96,65,29.94,29.58,15,3,17,0.01
2013-4-13,37.0,32.8,30.0,37.0,32.8,30.0,100,100,100,29.77,29.58,14,1,16,0.05
2013-4-14,36.0,30.4,22.0,32.0,27.2,21.0,100,91,71,30.15,29.71,21,3,21,0.89
2013-4-15,56.0,39.8,22.0,35.0,29.3,21.0,100,71,43,30.15,30.02,14,2,18,0.07
2013-4-16,51.0,43.6,33.0,50.0,40.3,28.0,99,89,74,30.07,29.80,21,3,23,0.21
2013-4-17,52.0,39.5,28.0,39.0,29.8,22.0,100,74,40,30.17,29.95,18,4,19,0.00
2013-4-18,58.0,42.6,27.0,46.0,33.7,23.0,98,74,48,30.16,29.68,21,4,24,0.01
2013-4-19,67.0,52.0,36.0,57.0,47.9,27.0,99,87,64,29.79,29.33,33,5,33,0.79
2013-4-20,39.0,33.6,24.0,35.0,25.0,14.0,95,74,54,30.32,29.51,25,7,28,0.00
2013-4-21,43.0,29.7,19.0,17.0,14.2,11.0,88,58,30,30.50,30.10,17,4,17,0.00
2013-4-22,49.0,35.4,19.0,26.0,17.1,13.0,93,55,26,30.51,30.25,17,3,18,0.00
2013-4-23,53.0,38.7,24.0,36.0,26.5,18.0,92,66,36,30.32,29.86,17,3,17,0.00
2013-4-24,70.0,48.5,26.0,51.0,38.1,24.0,98,73,32,29.95,29.51,24,3,28,0.27
2013-4-25,49.0,37.7,28.0,43.0,27.1,22.0,94,72,37,30.19,29.59,19,5,23,0.00
2013-4-26,46.0,35.8,27.0,36.0,26.8,19.0,97,75,44,30.28,30.09,14,2,14,0.02
2013-4-27,54.0,38.5,22.0,37.0,25.7,13.0,97,67,24,30.28,30.13,11,1,13,0.00
2013-4-28,66.0,48.0,27.0,39.0,32.9,23.0,97,62,34,30.16,29.97,11,2,11,0.00
2013-4-29,55.0,47.7,41.0,45.0,40.5,35.0,87,77,58,30.12,29.99,14,2,16,0.00
2013-4-30,65.0,52.2,35.0,50.0,44.2,34.0,96,77,52,30.26,30.04,11,3,14,0.00